sensor_id;sensor_type;location;lat;lon;timestamp;P1;durP1;ratioP1;P2;durP2;ratioP2
65037;SDS011;51605;47.040;15.294;2024-02-14T00:02:17;363.13;;;323.73;;
65037;SDS011;51605;47.040;15.294;2024-02-14T00:04:42;658.92;;;374.20;;
65037;SDS011;51605;47.040;15.294;2024-02-14T00:07:08;424.65;;;373.45;;
65037;SDS011;51605;47.040;15.294;2024-02-14T00:09:34;644.05;;;513.53;;
65037;SDS011;51605;47.040;15.294;2024-02-14T00:12:00;349.15;;;311.35;;
65037;SDS011;51605;47.040;15.294;2024-02-14T00:14:25;404.90;;;362.30;;
65037;SDS011;51605;47.040;15.294;2024-02-14T00:16:51;474.02;;;411.45;;
65037;SDS011;51605;47.040;15.294;2024-02-14T00:19:17;589.75;;;528.88;;
65037;SDS011;51605;47.040;15.294;2024-02-14T00:21:42;366.40;;;316.35;;
65037;SDS011;51605;47.040;15.294;2024-02-14T00:24:08;534.95;;;484.63;;
65037;SDS011;51605;47.040;15.294;2024-02-14T00:26:34;376.98;;;329.67;;
65037;SDS011;51605;47.040;15.294;2024-02-14T00:29:00;486.45;;;361.83;;
65037;SDS011;51605;47.040;15.294;2024-02-14T00:31:26;379.27;;;339.52;;
65037;SDS011;51605;47.040;15.294;2024-02-14T00:33:52;359.70;;;325.75;;
65037;SDS011;51605;47.040;15.294;2024-02-14T00:36:18;367.05;;;330.02;;
65037;SDS011;51605;47.040;15.294;2024-02-14T00:38:44;384.92;;;343.45;;
65037;SDS011;51605;47.040;15.294;2024-02-14T00:41:10;316.00;;;286.38;;
65037;SDS011;51605;47.040;15.294;2024-02-14T00:43:36;419.90;;;328.13;;
65037;SDS011;51605;47.040;15.294;2024-02-14T00:46:02;308.45;;;278.42;;
65037;SDS011;51605;47.040;15.294;2024-02-14T00:48:27;386.88;;;343.20;;
65037;SDS011;51605;47.040;15.294;2024-02-14T00:50:53;518.60;;;384.27;;
65037;SDS011;51605;47.040;15.294;2024-02-14T00:53:19;414.67;;;364.25;;
65037;SDS011;51605;47.040;15.294;2024-02-14T00:55:45;384.75;;;344.25;;
65037;SDS011;51605;47.040;15.294;2024-02-14T00:58:11;365.45;;;328.67;;
65037;SDS011;51605;47.040;15.294;2024-02-14T01:00:38;380.45;;;327.05;;
65037;SDS011;51605;47.040;15.294;2024-02-14T01:03:04;349.13;;;315.45;;
65037;SDS011;51605;47.040;15.294;2024-02-14T01:05:31;335.77;;;305.00;;
65037;SDS011;51605;47.040;15.294;2024-02-14T01:07:57;437.30;;;395.92;;
65037;SDS011;51605;47.040;15.294;2024-02-14T01:10:22;406.23;;;367.23;;
65037;SDS011;51605;47.040;15.294;2024-02-14T01:12:48;358.23;;;318.92;;
65037;SDS011;51605;47.040;15.294;2024-02-14T01:15:14;410.75;;;372.98;;
65037;SDS011;51605;47.040;15.294;2024-02-14T01:17:39;372.55;;;338.40;;
65037;SDS011;51605;47.040;15.294;2024-02-14T01:20:05;364.73;;;329.75;;
65037;SDS011;51605;47.040;15.294;2024-02-14T01:22:34;368.98;;;331.17;;
65037;SDS011;51605;47.040;15.294;2024-02-14T01:25:00;444.92;;;399.25;;
65037;SDS011;51605;47.040;15.294;2024-02-14T01:27:25;531.50;;;479.23;;
65037;SDS011;51605;47.040;15.294;2024-02-14T01:29:51;475.30;;;426.75;;
65037;SDS011;51605;47.040;15.294;2024-02-14T01:32:19;557.42;;;496.90;;
65037;SDS011;51605;47.040;15.294;2024-02-14T01:34:45;588.35;;;530.83;;
65037;SDS011;51605;47.040;15.294;2024-02-14T01:37:11;777.00;;;637.53;;
65037;SDS011;51605;47.040;15.294;2024-02-14T01:39:37;734.95;;;653.67;;
65037;SDS011;51605;47.040;15.294;2024-02-14T01:42:02;551.50;;;467.23;;
65037;SDS011;51605;47.040;15.294;2024-02-14T01:44:32;684.00;;;578.35;;
65037;SDS011;51605;47.040;15.294;2024-02-14T01:46:58;504.30;;;451.48;;
65037;SDS011;51605;47.040;15.294;2024-02-14T01:49:25;454.95;;;408.25;;
65037;SDS011;51605;47.040;15.294;2024-02-14T01:51:55;492.95;;;433.27;;
65037;SDS011;51605;47.040;15.294;2024-02-14T01:54:26;655.10;;;529.50;;
65037;SDS011;51605;47.040;15.294;2024-02-14T01:56:53;621.77;;;556.93;;
65037;SDS011;51605;47.040;15.294;2024-02-14T02:01:45;587.80;;;525.85;;
65037;SDS011;51605;47.040;15.294;2024-02-14T02:04:11;631.13;;;561.58;;
65037;SDS011;51605;47.040;15.294;2024-02-14T02:06:37;475.92;;;420.70;;
65037;SDS011;51605;47.040;15.294;2024-02-14T02:09:03;594.10;;;520.20;;
65037;SDS011;51605;47.040;15.294;2024-02-14T02:11:28;531.63;;;417.88;;
65037;SDS011;51605;47.040;15.294;2024-02-14T02:13:55;602.40;;;539.03;;
65037;SDS011;51605;47.040;15.294;2024-02-14T02:16:21;554.65;;;495.60;;
65037;SDS011;51605;47.040;15.294;2024-02-14T02:18:47;959.88;;;667.17;;
65037;SDS011;51605;47.040;15.294;2024-02-14T02:21:13;525.08;;;469.52;;
65037;SDS011;51605;47.040;15.294;2024-02-14T02:23:39;610.37;;;548.33;;
65037;SDS011;51605;47.040;15.294;2024-02-14T02:26:10;793.13;;;599.22;;
65037;SDS011;51605;47.040;15.294;2024-02-14T02:28:36;702.70;;;596.72;;
65037;SDS011;51605;47.040;15.294;2024-02-14T02:31:04;514.40;;;461.10;;
65037;SDS011;51605;47.040;15.294;2024-02-14T02:33:30;711.88;;;389.88;;
65037;SDS011;51605;47.040;15.294;2024-02-14T02:35:56;474.38;;;429.70;;
65037;SDS011;51605;47.040;15.294;2024-02-14T02:38:21;381.10;;;344.45;;
65037;SDS011;51605;47.040;15.294;2024-02-14T02:40:47;456.97;;;402.90;;
65037;SDS011;51605;47.040;15.294;2024-02-14T02:43:13;378.88;;;342.95;;
65037;SDS011;51605;47.040;15.294;2024-02-14T02:45:39;426.52;;;383.55;;
65037;SDS011;51605;47.040;15.294;2024-02-14T02:48:05;396.95;;;360.02;;
65037;SDS011;51605;47.040;15.294;2024-02-14T02:50:31;484.38;;;435.48;;
65037;SDS011;51605;47.040;15.294;2024-02-14T02:52:56;514.50;;;446.38;;
65037;SDS011;51605;47.040;15.294;2024-02-14T02:55:22;419.42;;;362.80;;
65037;SDS011;51605;47.040;15.294;2024-02-14T02:57:48;554.75;;;491.98;;
65037;SDS011;51605;47.040;15.294;2024-02-14T03:00:14;388.40;;;350.77;;
65037;SDS011;51605;47.040;15.294;2024-02-14T03:05:09;394.48;;;350.05;;
65037;SDS011;51605;47.040;15.294;2024-02-14T03:07:38;829.17;;;727.70;;
65037;SDS011;51605;47.040;15.294;2024-02-14T03:10:04;609.80;;;542.40;;
65037;SDS011;51605;47.040;15.294;2024-02-14T03:12:32;603.42;;;392.52;;
65037;SDS011;51605;47.040;15.294;2024-02-14T03:15:02;623.65;;;550.95;;
65037;SDS011;51605;47.040;15.294;2024-02-14T03:17:29;538.15;;;449.55;;
65037;SDS011;51605;47.040;15.294;2024-02-14T03:19:55;501.27;;;417.77;;
65037;SDS011;51605;47.040;15.294;2024-02-14T03:22:21;514.40;;;466.05;;
65037;SDS011;51605;47.040;15.294;2024-02-14T03:24:47;571.63;;;470.13;;
65037;SDS011;51605;47.040;15.294;2024-02-14T03:27:13;644.78;;;412.77;;
65037;SDS011;51605;47.040;15.294;2024-02-14T03:29:39;421.50;;;377.08;;
65037;SDS011;51605;47.040;15.294;2024-02-14T03:32:05;470.30;;;427.52;;
65037;SDS011;51605;47.040;15.294;2024-02-14T03:34:33;490.52;;;437.42;;
65037;SDS011;51605;47.040;15.294;2024-02-14T03:37:02;543.53;;;488.38;;
65037;SDS011;51605;47.040;15.294;2024-02-14T03:39:28;455.35;;;401.15;;
65037;SDS011;51605;47.040;15.294;2024-02-14T03:41:54;477.05;;;428.63;;
65037;SDS011;51605;47.040;15.294;2024-02-14T03:44:21;444.90;;;391.25;;
65037;SDS011;51605;47.040;15.294;2024-02-14T03:46:50;464.60;;;418.90;;
65037;SDS011;51605;47.040;15.294;2024-02-14T03:49:15;433.55;;;381.23;;
65037;SDS011;51605;47.040;15.294;2024-02-14T03:51:42;479.00;;;428.13;;
65037;SDS011;51605;47.040;15.294;2024-02-14T03:54:08;604.00;;;498.98;;
65037;SDS011;51605;47.040;15.294;2024-02-14T03:56:33;384.83;;;349.13;;
65037;SDS011;51605;47.040;15.294;2024-02-14T03:58:59;624.20;;;516.30;;
65037;SDS011;51605;47.040;15.294;2024-02-14T04:01:25;687.90;;;543.08;;
65037;SDS011;51605;47.040;15.294;2024-02-14T04:03:50;564.47;;;506.15;;
65037;SDS011;51605;47.040;15.294;2024-02-14T04:06:16;535.08;;;480.20;;
65037;SDS011;51605;47.040;15.294;2024-02-14T04:08:43;988.92;;;539.28;;
65037;SDS011;51605;47.040;15.294;2024-02-14T04:11:08;717.20;;;577.65;;
65037;SDS011;51605;47.040;15.294;2024-02-14T04:13:34;763.47;;;620.33;;
65037;SDS011;51605;47.040;15.294;2024-02-14T04:16:00;906.03;;;696.08;;
65037;SDS011;51605;47.040;15.294;2024-02-14T04:18:26;927.58;;;712.55;;
65037;SDS011;51605;47.040;15.294;2024-02-14T04:20:52;684.47;;;614.88;;
65037;SDS011;51605;47.040;15.294;2024-02-14T04:23:17;807.33;;;651.50;;
65037;SDS011;51605;47.040;15.294;2024-02-14T04:25:44;702.37;;;550.47;;
65037;SDS011;51605;47.040;15.294;2024-02-14T04:28:09;914.72;;;700.28;;
65037;SDS011;51605;47.040;15.294;2024-02-14T04:30:37;877.42;;;610.55;;
65037;SDS011;51605;47.040;15.294;2024-02-14T04:33:03;911.28;;;710.63;;
65037;SDS011;51605;47.040;15.294;2024-02-14T04:35:30;1133.25;;;754.53;;
65037;SDS011;51605;47.040;15.294;2024-02-14T04:37:55;1152.90;;;776.75;;
65037;SDS011;51605;47.040;15.294;2024-02-14T04:40:22;828.13;;;583.07;;
65037;SDS011;51605;47.040;15.294;2024-02-14T04:42:47;750.50;;;614.67;;
65037;SDS011;51605;47.040;15.294;2024-02-14T04:45:13;723.03;;;587.75;;
65037;SDS011;51605;47.040;15.294;2024-02-14T04:47:39;1122.80;;;709.10;;
65037;SDS011;51605;47.040;15.294;2024-02-14T04:50:05;743.92;;;507.80;;
65037;SDS011;51605;47.040;15.294;2024-02-14T04:52:31;788.90;;;557.55;;
65037;SDS011;51605;47.040;15.294;2024-02-14T04:54:56;584.25;;;527.92;;
65037;SDS011;51605;47.040;15.294;2024-02-14T04:57:22;1156.53;;;744.85;;
65037;SDS011;51605;47.040;15.294;2024-02-14T04:59:48;841.30;;;572.97;;
65037;SDS011;51605;47.040;15.294;2024-02-14T05:02:14;900.03;;;680.45;;
65037;SDS011;51605;47.040;15.294;2024-02-14T05:04:40;903.00;;;629.28;;
65037;SDS011;51605;47.040;15.294;2024-02-14T05:07:06;788.75;;;577.88;;
65037;SDS011;51605;47.040;15.294;2024-02-14T05:09:32;809.90;;;712.57;;
65037;SDS011;51605;47.040;15.294;2024-02-14T05:11:58;1108.60;;;762.28;;
65037;SDS011;51605;47.040;15.294;2024-02-14T05:14:25;894.55;;;745.42;;
65037;SDS011;51605;47.040;15.294;2024-02-14T05:16:56;930.35;;;682.70;;
65037;SDS011;51605;47.040;15.294;2024-02-14T05:19:22;1223.35;;;860.03;;
65037;SDS011;51605;47.040;15.294;2024-02-14T05:21:47;974.03;;;712.17;;
65037;SDS011;51605;47.040;15.294;2024-02-14T05:24:14;1036.13;;;774.10;;
65037;SDS011;51605;47.040;15.294;2024-02-14T05:26:39;956.05;;;658.38;;
65037;SDS011;51605;47.040;15.294;2024-02-14T05:29:05;1740.35;;;908.42;;
65037;SDS011;51605;47.040;15.294;2024-02-14T05:31:42;1469.55;;;858.78;;
65037;SDS011;51605;47.040;15.294;2024-02-14T05:34:09;901.00;;;634.47;;
65037;SDS011;51605;47.040;15.294;2024-02-14T05:36:35;1056.93;;;703.88;;
65037;SDS011;51605;47.040;15.294;2024-02-14T05:39:01;1056.90;;;696.27;;
65037;SDS011;51605;47.040;15.294;2024-02-14T05:41:27;1336.45;;;834.35;;
65037;SDS011;51605;47.040;15.294;2024-02-14T05:43:53;709.58;;;587.17;;
65037;SDS011;51605;47.040;15.294;2024-02-14T05:46:18;830.55;;;726.08;;
65037;SDS011;51605;47.040;15.294;2024-02-14T05:48:46;867.20;;;694.90;;
65037;SDS011;51605;47.040;15.294;2024-02-14T05:51:11;910.78;;;580.10;;
65037;SDS011;51605;47.040;15.294;2024-02-14T05:53:37;1002.05;;;767.40;;
65037;SDS011;51605;47.040;15.294;2024-02-14T05:56:03;945.78;;;650.13;;
65037;SDS011;51605;47.040;15.294;2024-02-14T05:58:28;1260.40;;;746.47;;
65037;SDS011;51605;47.040;15.294;2024-02-14T06:00:54;1221.40;;;811.88;;
65037;SDS011;51605;47.040;15.294;2024-02-14T06:03:22;1541.40;;;816.42;;
65037;SDS011;51605;47.040;15.294;2024-02-14T06:05:48;1228.20;;;764.00;;
65037;SDS011;51605;47.040;15.294;2024-02-14T06:08:13;906.00;;;716.53;;
65037;SDS011;51605;47.040;15.294;2024-02-14T06:10:39;1154.97;;;728.58;;
65037;SDS011;51605;47.040;15.294;2024-02-14T06:13:05;1090.88;;;705.58;;
65037;SDS011;51605;47.040;15.294;2024-02-14T06:15:30;1469.55;;;847.85;;
65037;SDS011;51605;47.040;15.294;2024-02-14T06:17:56;746.28;;;608.65;;
65037;SDS011;51605;47.040;15.294;2024-02-14T06:20:22;856.25;;;562.95;;
65037;SDS011;51605;47.040;15.294;2024-02-14T06:22:48;1126.72;;;700.38;;
65037;SDS011;51605;47.040;15.294;2024-02-14T06:25:13;1160.40;;;779.80;;
65037;SDS011;51605;47.040;15.294;2024-02-14T06:27:41;1322.95;;;851.38;;
65037;SDS011;51605;47.040;15.294;2024-02-14T06:30:07;1319.72;;;782.55;;
65037;SDS011;51605;47.040;15.294;2024-02-14T06:32:33;1535.60;;;899.88;;
65037;SDS011;51605;47.040;15.294;2024-02-14T06:35:00;1058.38;;;722.78;;
65037;SDS011;51605;47.040;15.294;2024-02-14T06:37:25;939.80;;;629.75;;
65037;SDS011;51605;47.040;15.294;2024-02-14T06:39:51;1138.60;;;775.55;;
65037;SDS011;51605;47.040;15.294;2024-02-14T06:42:17;1038.47;;;712.40;;
65037;SDS011;51605;47.040;15.294;2024-02-14T06:44:43;1120.63;;;736.85;;
65037;SDS011;51605;47.040;15.294;2024-02-14T06:47:09;1087.60;;;843.90;;
65037;SDS011;51605;47.040;15.294;2024-02-14T06:49:35;599.90;;;535.53;;
65037;SDS011;51605;47.040;15.294;2024-02-14T06:52:00;1067.78;;;669.25;;
65037;SDS011;51605;47.040;15.294;2024-02-14T06:54:26;769.13;;;605.13;;
65037;SDS011;51605;47.040;15.294;2024-02-14T06:56:52;890.13;;;599.28;;
65037;SDS011;51605;47.040;15.294;2024-02-14T06:59:17;961.75;;;623.72;;
65037;SDS011;51605;47.040;15.294;2024-02-14T07:01:44;1198.13;;;817.80;;
65037;SDS011;51605;47.040;15.294;2024-02-14T07:04:09;988.53;;;649.85;;
65037;SDS011;51605;47.040;15.294;2024-02-14T07:06:35;861.65;;;691.10;;
65037;SDS011;51605;47.040;15.294;2024-02-14T07:09:01;846.38;;;634.67;;
65037;SDS011;51605;47.040;15.294;2024-02-14T07:13:54;1044.35;;;770.25;;
65037;SDS011;51605;47.040;15.294;2024-02-14T07:16:20;1016.28;;;713.25;;
65037;SDS011;51605;47.040;15.294;2024-02-14T07:18:46;1149.82;;;765.75;;
65037;SDS011;51605;47.040;15.294;2024-02-14T07:21:12;1083.90;;;758.58;;
65037;SDS011;51605;47.040;15.294;2024-02-14T07:23:37;657.83;;;586.65;;
65037;SDS011;51605;47.040;15.294;2024-02-14T07:26:03;619.42;;;522.75;;
65037;SDS011;51605;47.040;15.294;2024-02-14T07:28:29;796.95;;;632.97;;
65037;SDS011;51605;47.040;15.294;2024-02-14T07:30:54;1215.78;;;801.78;;
65037;SDS011;51605;47.040;15.294;2024-02-14T07:33:20;1308.57;;;668.45;;
65037;SDS011;51605;47.040;15.294;2024-02-14T07:35:46;969.30;;;734.47;;
65037;SDS011;51605;47.040;15.294;2024-02-14T07:38:14;1357.63;;;823.03;;
65037;SDS011;51605;47.040;15.294;2024-02-14T07:40:41;1177.35;;;745.90;;
65037;SDS011;51605;47.040;15.294;2024-02-14T07:43:07;1135.43;;;812.42;;
65037;SDS011;51605;47.040;15.294;2024-02-14T07:45:33;1323.83;;;788.70;;
65037;SDS011;51605;47.040;15.294;2024-02-14T07:47:59;1007.90;;;721.63;;
65037;SDS011;51605;47.040;15.294;2024-02-14T07:50:24;1073.47;;;683.55;;
65037;SDS011;51605;47.040;15.294;2024-02-14T07:52:52;1321.00;;;831.88;;
65037;SDS011;51605;47.040;15.294;2024-02-14T07:55:18;1047.00;;;730.45;;
65037;SDS011;51605;47.040;15.294;2024-02-14T07:57:44;1404.00;;;860.90;;
65037;SDS011;51605;47.040;15.294;2024-02-14T08:00:10;1618.55;;;923.03;;
65037;SDS011;51605;47.040;15.294;2024-02-14T08:02:37;1198.93;;;820.08;;
65037;SDS011;51605;47.040;15.294;2024-02-14T08:05:07;1394.63;;;888.15;;
65037;SDS011;51605;47.040;15.294;2024-02-14T08:07:33;1253.50;;;738.88;;
65037;SDS011;51605;47.040;15.294;2024-02-14T08:09:59;1008.13;;;667.17;;
65037;SDS011;51605;47.040;15.294;2024-02-14T08:12:25;891.00;;;715.30;;
65037;SDS011;51605;47.040;15.294;2024-02-14T08:14:51;693.20;;;565.78;;
65037;SDS011;51605;47.040;15.294;2024-02-14T08:17:17;1288.03;;;878.65;;
65037;SDS011;51605;47.040;15.294;2024-02-14T08:19:43;912.72;;;756.60;;
65037;SDS011;51605;47.040;15.294;2024-02-14T08:22:08;1007.85;;;624.80;;
65037;SDS011;51605;47.040;15.294;2024-02-14T08:24:34;1315.22;;;851.67;;
65037;SDS011;51605;47.040;15.294;2024-02-14T08:27:00;1033.80;;;717.10;;
65037;SDS011;51605;47.040;15.294;2024-02-14T08:29:26;1435.57;;;795.90;;
65037;SDS011;51605;47.040;15.294;2024-02-14T08:31:51;963.83;;;674.90;;
65037;SDS011;51605;47.040;15.294;2024-02-14T08:34:18;1476.85;;;906.22;;
65037;SDS011;51605;47.040;15.294;2024-02-14T08:36:44;870.03;;;704.40;;
65037;SDS011;51605;47.040;15.294;2024-02-14T08:39:10;932.97;;;683.15;;
65037;SDS011;51605;47.040;15.294;2024-02-14T08:41:39;1126.80;;;769.70;;
65037;SDS011;51605;47.040;15.294;2024-02-14T08:44:09;760.75;;;561.72;;
65037;SDS011;51605;47.040;15.294;2024-02-14T08:46:35;848.72;;;666.33;;
65037;SDS011;51605;47.040;15.294;2024-02-14T08:49:01;805.60;;;594.83;;
65037;SDS011;51605;47.040;15.294;2024-02-14T08:51:27;696.83;;;561.60;;
65037;SDS011;51605;47.040;15.294;2024-02-14T08:53:53;878.77;;;609.70;;
65037;SDS011;51605;47.040;15.294;2024-02-14T08:56:22;1070.22;;;691.72;;
65037;SDS011;51605;47.040;15.294;2024-02-14T08:58:48;716.30;;;642.35;;
65037;SDS011;51605;47.040;15.294;2024-02-14T09:01:14;615.17;;;474.42;;
65037;SDS011;51605;47.040;15.294;2024-02-14T09:03:41;779.87;;;569.13;;
65037;SDS011;51605;47.040;15.294;2024-02-14T09:06:13;741.88;;;648.38;;
65037;SDS011;51605;47.040;15.294;2024-02-14T09:08:39;621.58;;;547.70;;
65037;SDS011;51605;47.040;15.294;2024-02-14T09:11:05;643.72;;;382.25;;
65037;SDS011;51605;47.040;15.294;2024-02-14T09:13:31;490.63;;;431.88;;
65037;SDS011;51605;47.040;15.294;2024-02-14T09:15:56;828.42;;;581.35;;
65037;SDS011;51605;47.040;15.294;2024-02-14T09:18:22;629.05;;;517.58;;
65037;SDS011;51605;47.040;15.294;2024-02-14T09:20:49;610.28;;;449.65;;
65037;SDS011;51605;47.040;15.294;2024-02-14T09:23:15;642.20;;;575.50;;
65037;SDS011;51605;47.040;15.294;2024-02-14T09:25:45;733.10;;;548.30;;
65037;SDS011;51605;47.040;15.294;2024-02-14T09:28:12;574.15;;;475.98;;
65037;SDS011;51605;47.040;15.294;2024-02-14T09:30:39;571.33;;;513.35;;
65037;SDS011;51605;47.040;15.294;2024-02-14T09:33:05;608.50;;;427.55;;
65037;SDS011;51605;47.040;15.294;2024-02-14T09:35:30;528.05;;;471.60;;
65037;SDS011;51605;47.040;15.294;2024-02-14T09:37:56;486.23;;;435.40;;
65037;SDS011;51605;47.040;15.294;2024-02-14T09:40:22;623.22;;;560.97;;
65037;SDS011;51605;47.040;15.294;2024-02-14T09:42:56;725.43;;;614.40;;
65037;SDS011;51605;47.040;15.294;2024-02-14T09:45:28;666.85;;;512.25;;
65037;SDS011;51605;47.040;15.294;2024-02-14T09:47:58;794.45;;;687.38;;
65037;SDS011;51605;47.040;15.294;2024-02-14T09:50:24;860.92;;;570.33;;
65037;SDS011;51605;47.040;15.294;2024-02-14T09:52:55;580.80;;;499.08;;
65037;SDS011;51605;47.040;15.294;2024-02-14T09:55:22;823.67;;;616.00;;
65037;SDS011;51605;47.040;15.294;2024-02-14T09:57:49;683.80;;;593.08;;
65037;SDS011;51605;47.040;15.294;2024-02-14T10:00:15;677.33;;;601.33;;
65037;SDS011;51605;47.040;15.294;2024-02-14T10:02:41;662.47;;;597.13;;
65037;SDS011;51605;47.040;15.294;2024-02-14T10:05:07;550.00;;;475.33;;
65037;SDS011;51605;47.040;15.294;2024-02-14T10:07:40;831.10;;;621.97;;
65037;SDS011;51605;47.040;15.294;2024-02-14T10:10:07;923.45;;;644.72;;
65037;SDS011;51605;47.040;15.294;2024-02-14T10:12:32;575.92;;;514.55;;
65037;SDS011;51605;47.040;15.294;2024-02-14T10:14:58;672.22;;;471.02;;
65037;SDS011;51605;47.040;15.294;2024-02-14T10:17:24;899.30;;;609.00;;
65037;SDS011;51605;47.040;15.294;2024-02-14T10:19:54;681.45;;;518.08;;
65037;SDS011;51605;47.040;15.294;2024-02-14T10:22:23;982.03;;;656.97;;
65037;SDS011;51605;47.040;15.294;2024-02-14T10:24:50;545.63;;;490.00;;
65037;SDS011;51605;47.040;15.294;2024-02-14T10:27:17;656.95;;;505.48;;
65037;SDS011;51605;47.040;15.294;2024-02-14T10:29:42;827.70;;;537.55;;
65037;SDS011;51605;47.040;15.294;2024-02-14T10:32:09;547.17;;;492.42;;
65037;SDS011;51605;47.040;15.294;2024-02-14T10:34:35;725.58;;;510.67;;
65037;SDS011;51605;47.040;15.294;2024-02-14T10:37:03;604.67;;;456.48;;
65037;SDS011;51605;47.040;15.294;2024-02-14T10:39:31;529.97;;;350.60;;
65037;SDS011;51605;47.040;15.294;2024-02-14T10:42:00;591.80;;;467.90;;
65037;SDS011;51605;47.040;15.294;2024-02-14T10:44:26;788.97;;;526.55;;
65037;SDS011;51605;47.040;15.294;2024-02-14T10:46:52;649.03;;;519.35;;
65037;SDS011;51605;47.040;15.294;2024-02-14T10:49:20;808.38;;;712.20;;
65037;SDS011;51605;47.040;15.294;2024-02-14T10:51:48;967.88;;;611.72;;
65037;SDS011;51605;47.040;15.294;2024-02-14T10:54:18;832.33;;;583.63;;
65037;SDS011;51605;47.040;15.294;2024-02-14T10:56:48;672.40;;;601.58;;
65037;SDS011;51605;47.040;15.294;2024-02-14T10:59:19;703.72;;;627.05;;
65037;SDS011;51605;47.040;15.294;2024-02-14T11:01:48;770.30;;;539.30;;
65037;SDS011;51605;47.040;15.294;2024-02-14T11:04:14;863.05;;;620.97;;
65037;SDS011;51605;47.040;15.294;2024-02-14T11:06:47;944.00;;;642.70;;
65037;SDS011;51605;47.040;15.294;2024-02-14T11:09:14;857.10;;;646.92;;
65037;SDS011;51605;47.040;15.294;2024-02-14T11:11:42;885.28;;;730.78;;
65037;SDS011;51605;47.040;15.294;2024-02-14T11:14:15;1053.38;;;760.28;;
65037;SDS011;51605;47.040;15.294;2024-02-14T11:16:44;831.53;;;637.20;;
65037;SDS011;51605;47.040;15.294;2024-02-14T11:19:11;973.97;;;765.63;;
65037;SDS011;51605;47.040;15.294;2024-02-14T11:24:09;833.55;;;734.67;;
65037;SDS011;51605;47.040;15.294;2024-02-14T11:26:39;1159.70;;;719.75;;
65037;SDS011;51605;47.040;15.294;2024-02-14T11:29:13;861.00;;;689.08;;
65037;SDS011;51605;47.040;15.294;2024-02-14T11:31:41;827.03;;;736.58;;
65037;SDS011;51605;47.040;15.294;2024-02-14T11:34:08;1365.55;;;872.25;;
65037;SDS011;51605;47.040;15.294;2024-02-14T11:36:36;1063.30;;;849.05;;
65037;SDS011;51605;47.040;15.294;2024-02-14T11:39:03;1255.60;;;769.35;;
65037;SDS011;51605;47.040;15.294;2024-02-14T11:41:30;847.53;;;599.08;;
65037;SDS011;51605;47.040;15.294;2024-02-14T11:44:00;898.97;;;697.38;;
65037;SDS011;51605;47.040;15.294;2024-02-14T11:46:29;910.88;;;778.88;;
65037;SDS011;51605;47.040;15.294;2024-02-14T11:49:01;994.90;;;782.42;;
65037;SDS011;51605;47.040;15.294;2024-02-14T11:54:00;962.97;;;691.25;;
65037;SDS011;51605;47.040;15.294;2024-02-14T11:56:33;1077.32;;;783.13;;
65037;SDS011;51605;47.040;15.294;2024-02-14T11:59:04;1089.00;;;798.15;;
65037;SDS011;51605;47.040;15.294;2024-02-14T12:01:34;850.75;;;595.58;;
65037;SDS011;51605;47.040;15.294;2024-02-14T12:04:02;776.28;;;597.05;;
65037;SDS011;51605;47.040;15.294;2024-02-14T12:06:33;754.42;;;667.92;;
65037;SDS011;51605;47.040;15.294;2024-02-14T12:09:00;1126.55;;;719.53;;
65037;SDS011;51605;47.040;15.294;2024-02-14T12:11:30;752.22;;;648.45;;
65037;SDS011;51605;47.040;15.294;2024-02-14T12:14:00;799.35;;;712.95;;
65037;SDS011;51605;47.040;15.294;2024-02-14T12:16:27;811.55;;;714.33;;
65037;SDS011;51605;47.040;15.294;2024-02-14T12:21:37;776.08;;;609.67;;
65037;SDS011;51605;47.040;15.294;2024-02-14T12:24:07;879.28;;;698.53;;
65037;SDS011;51605;47.040;15.294;2024-02-14T12:26:33;1064.97;;;766.58;;
65037;SDS011;51605;47.040;15.294;2024-02-14T12:29:01;802.80;;;620.42;;
65037;SDS011;51605;47.040;15.294;2024-02-14T12:31:28;1000.40;;;701.22;;
65037;SDS011;51605;47.040;15.294;2024-02-14T12:36:24;1296.38;;;775.65;;
65037;SDS011;51605;47.040;15.294;2024-02-14T12:38:50;1209.65;;;795.15;;
65037;SDS011;51605;47.040;15.294;2024-02-14T12:41:18;1289.30;;;842.58;;
65037;SDS011;51605;47.040;15.294;2024-02-14T12:43:44;1466.65;;;794.45;;
65037;SDS011;51605;47.040;15.294;2024-02-14T12:46:09;1258.22;;;667.22;;
65037;SDS011;51605;47.040;15.294;2024-02-14T12:48:35;1320.00;;;820.33;;
65037;SDS011;51605;47.040;15.294;2024-02-14T12:51:01;826.63;;;636.80;;
65037;SDS011;51605;47.040;15.294;2024-02-14T12:53:27;919.13;;;764.10;;
65037;SDS011;51605;47.040;15.294;2024-02-14T12:55:52;994.35;;;656.28;;
65037;SDS011;51605;47.040;15.294;2024-02-14T12:58:18;767.45;;;639.70;;
65037;SDS011;51605;47.040;15.294;2024-02-14T13:00:44;907.75;;;659.60;;
65037;SDS011;51605;47.040;15.294;2024-02-14T13:03:10;553.78;;;501.42;;
65037;SDS011;51605;47.040;15.294;2024-02-14T13:05:36;686.35;;;581.00;;
65037;SDS011;51605;47.040;15.294;2024-02-14T13:08:02;921.40;;;683.88;;
65037;SDS011;51605;47.040;15.294;2024-02-14T13:10:28;613.63;;;542.75;;
65037;SDS011;51605;47.040;15.294;2024-02-14T13:12:56;578.72;;;522.22;;
65037;SDS011;51605;47.040;15.294;2024-02-14T13:15:22;629.63;;;550.67;;
65037;SDS011;51605;47.040;15.294;2024-02-14T13:17:48;542.13;;;484.05;;
65037;SDS011;51605;47.040;15.294;2024-02-14T13:20:13;672.88;;;568.42;;
65037;SDS011;51605;47.040;15.294;2024-02-14T13:22:40;943.93;;;640.93;;
65037;SDS011;51605;47.040;15.294;2024-02-14T13:25:07;947.13;;;609.90;;
65037;SDS011;51605;47.040;15.294;2024-02-14T13:27:34;585.50;;;519.87;;
65037;SDS011;51605;47.040;15.294;2024-02-14T13:30:00;810.33;;;577.10;;
65037;SDS011;51605;47.040;15.294;2024-02-14T13:32:27;946.83;;;722.92;;
65037;SDS011;51605;47.040;15.294;2024-02-14T13:34:53;941.58;;;709.55;;
65037;SDS011;51605;47.040;15.294;2024-02-14T13:37:19;1693.45;;;892.25;;
65037;SDS011;51605;47.040;15.294;2024-02-14T13:39:45;645.65;;;578.15;;
65037;SDS011;51605;47.040;15.294;2024-02-14T13:42:12;717.67;;;644.40;;
65037;SDS011;51605;47.040;15.294;2024-02-14T13:44:37;843.42;;;516.97;;
65037;SDS011;51605;47.040;15.294;2024-02-14T13:47:03;601.42;;;542.25;;
65037;SDS011;51605;47.040;15.294;2024-02-14T13:49:29;691.77;;;578.53;;
65037;SDS011;51605;47.040;15.294;2024-02-14T13:51:55;594.80;;;496.52;;
65037;SDS011;51605;47.040;15.294;2024-02-14T13:54:21;738.40;;;482.58;;
65037;SDS011;51605;47.040;15.294;2024-02-14T13:56:50;808.33;;;598.33;;